Time;durP1;ratioP1;P1;durP2;ratioP2;P2;SDS_P1;SDS_P2;PMS_P1;PMS_P2;Temp;Humidity;BMP_temperature;BMP_pressure;BME280_temperature;BME280_humidity;BME280_pressure;Samples;Min_cycle;Max_cycle;Signal;HPM_P1;HPM_P2
2023/05/24 00:02:25;;;;;;;10.23;6.25;;;14.20;99.90;;;;;;7587125;19;20019;-73
2023/05/24 00:04:59;;;;;;;7.95;6.72;;;14.20;99.90;;;;;;7590050;19;20883;-73
2023/05/24 00:07:32;;;;;;;10.63;6.45;;;14.10;99.90;;;;;;7595490;19;20014;-73
2023/05/24 00:10:05;;;;;;;10.93;7.32;;;14.20;99.90;;;;;;7595655;19;20579;-73
2023/05/24 00:12:38;;;;;;;8.90;7.00;;;14.10;99.90;;;;;;7581275;19;20022;-73
2023/05/24 00:15:10;;;;;;;9.68;7.00;;;14.10;99.90;;;;;;7589855;19;20489;-73
2023/05/24 00:17:42;;;;;;;9.15;7.03;;;14.10;99.90;;;;;;7589476;19;20017;-73
2023/05/24 00:20:15;;;;;;;10.75;7.22;;;14.10;99.90;;;;;;7587912;19;20039;-73
2023/05/24 00:22:48;;;;;;;8.68;6.65;;;14.10;99.90;;;;;;7582753;19;20056;-73
2023/05/24 00:25:20;;;;;;;12.57;6.80;;;14.10;99.90;;;;;;7592671;19;20116;-73
2023/05/24 00:27:52;;;;;;;9.85;6.60;;;14.20;99.90;;;;;;7595220;19;20029;-74
2023/05/24 00:30:25;;;;;;;13.07;6.95;;;14.20;99.90;;;;;;7592413;19;20010;-73
2023/05/24 00:32:59;;;;;;;9.70;6.00;;;14.20;99.90;;;;;;7593087;19;20022;-74
2023/05/24 00:35:32;;;;;;;11.40;7.13;;;14.10;99.90;;;;;;7590188;19;20801;-73
2023/05/24 00:38:04;;;;;;;8.00;6.53;;;14.10;99.90;;;;;;7587893;19;20150;-74
2023/05/24 00:40:37;;;;;;;8.80;6.35;;;14.10;99.90;;;;;;7592093;19;21340;-73
2023/05/24 00:43:09;;;;;;;7.50;6.25;;;14.20;99.90;;;;;;7592293;19;20084;-74
2023/05/24 00:45:41;;;;;;;8.52;5.97;;;14.20;99.90;;;;;;7573556;19;20026;-74
2023/05/24 00:48:13;;;;;;;7.78;6.13;;;14.10;99.90;;;;;;7574545;19;20022;-74
2023/05/24 00:50:46;;;;;;;8.68;5.85;;;14.00;99.90;;;;;;7557334;19;20025;-73
2023/05/24 00:53:20;;;;;;;9.35;6.13;;;14.00;99.90;;;;;;7586856;19;20025;-73
2023/05/24 00:55:53;;;;;;;8.65;6.03;;;14.00;99.90;;;;;;7587926;19;20034;-73
2023/05/24 00:58:29;;;;;;;7.55;5.78;;;14.10;99.90;;;;;;7586966;19;20025;-73
2023/05/24 01:01:03;;;;;;;7.68;5.80;;;14.00;99.90;;;;;;7584909;19;20610;-73
2023/05/24 01:03:36;;;;;;;8.10;5.78;;;14.00;99.90;;;;;;7579882;19;20030;-73
2023/05/24 01:06:08;;;;;;;6.20;5.35;;;14.00;99.90;;;;;;7588679;19;20010;-73
2023/05/24 01:09:15;;;;;;;8.68;6.47;;;14.00;99.90;;;;;;7583366;19;20025;-73
2023/05/24 01:12:00;;;;;;;9.45;6.97;;;14.00;99.90;;;;;;7583471;19;21325;-74
2023/05/24 01:14:48;;;;;;;8.93;6.38;;;13.90;99.90;;;;;;7583419;19;20060;-74
2023/05/24 01:17:31;;;;;;;8.60;6.10;;;13.90;99.90;;;;;;7587195;19;20022;-73
2023/05/24 01:20:09;;;;;;;9.95;7.43;;;13.90;99.90;;;;;;7581866;19;20019;-73
2023/05/24 01:22:42;;;;;;;9.50;7.05;;;13.90;99.90;;;;;;7568663;19;20048;-75
2023/05/24 01:25:31;;;;;;;10.50;6.33;;;13.80;99.90;;;;;;7586938;19;21186;-75
2023/05/24 01:28:08;;;;;;;11.25;7.10;;;13.80;99.90;;;;;;7588180;19;20082;-76
2023/05/24 01:30:41;;;;;;;10.75;7.65;;;13.70;99.90;;;;;;7584032;19;20074;-73
2023/05/24 01:33:14;;;;;;;9.68;6.65;;;13.70;99.90;;;;;;7589457;19;20026;-73
2023/05/24 01:35:46;;;;;;;11.02;7.45;;;13.70;99.90;;;;;;7572968;19;20074;-75
2023/05/24 01:38:19;;;;;;;10.07;8.02;;;13.70;99.90;;;;;;7583975;19;20018;-74
2023/05/24 01:41:00;;;;;;;10.13;7.53;;;13.60;99.90;;;;;;7586132;19;20021;-73
2023/05/24 01:43:43;;;;;;;10.45;7.35;;;13.60;99.90;;;;;;7590453;19;20034;-73
2023/05/24 01:46:28;;;;;;;15.77;9.07;;;13.60;99.90;;;;;;7582384;19;20025;-73
2023/05/24 01:49:16;;;;;;;13.27;8.50;;;13.60;99.90;;;;;;7579902;19;20051;-73
2023/05/24 01:51:53;;;;;;;11.40;8.18;;;13.50;99.90;;;;;;7563531;19;20263;-73
2023/05/24 01:54:29;;;;;;;11.35;7.95;;;13.60;99.90;;;;;;7594543;19;20023;-73
2023/05/24 01:57:06;;;;;;;11.43;7.68;;;13.60;99.90;;;;;;7579181;19;20021;-76
2023/05/24 01:59:42;;;;;;;12.70;9.25;;;13.70;99.90;;;;;;7578929;19;20014;-75
2023/05/24 02:02:14;;;;;;;15.25;9.27;;;13.70;99.90;;;;;;7570943;19;20027;-75
2023/05/24 02:04:46;;;;;;;13.50;8.95;;;13.60;99.90;;;;;;7578723;19;21161;-75
2023/05/24 02:07:19;;;;;;;12.68;9.45;;;13.60;99.90;;;;;;7592407;19;20019;-75
2023/05/24 02:09:51;;;;;;;11.70;8.02;;;13.60;99.90;;;;;;7582008;19;20097;-75
2023/05/24 02:12:23;;;;;;;14.18;9.15;;;13.60;99.90;;;;;;7577588;19;20007;-75
2023/05/24 02:14:56;;;;;;;11.20;8.45;;;13.60;99.90;;;;;;7584332;19;21011;-76
2023/05/24 02:17:31;;;;;;;13.23;9.15;;;13.60;99.90;;;;;;7579803;19;20015;-75
2023/05/24 02:20:05;;;;;;;14.02;8.98;;;13.60;99.90;;;;;;7583126;19;20021;-75
2023/05/24 02:22:38;;;;;;;13.85;8.32;;;13.60;99.90;;;;;;7586367;19;20014;-75
2023/05/24 02:25:11;;;;;;;10.75;8.20;;;13.50;99.90;;;;;;7593923;19;20013;-75
2023/05/24 02:27:45;;;;;;;12.25;8.35;;;13.60;99.90;;;;;;7585398;19;20011;-75
2023/05/24 02:30:18;;;;;;;12.95;9.27;;;13.60;99.90;;;;;;7595278;19;20634;-75
2023/05/24 02:32:50;;;;;;;12.18;8.75;;;13.60;99.90;;;;;;7582353;19;20056;-75
2023/05/24 02:35:22;;;;;;;15.10;9.85;;;13.60;99.90;;;;;;7594643;19;20601;-75
2023/05/24 02:37:57;;;;;;;14.45;9.70;;;13.60;99.90;;;;;;7587531;19;20078;-75
2023/05/24 02:40:29;;;;;;;11.63;8.65;;;13.60;99.90;;;;;;7589628;19;20023;-75
2023/05/24 02:43:02;;;;;;;13.27;9.40;;;13.60;99.90;;;;;;7592612;19;20101;-74
2023/05/24 02:45:35;;;;;;;16.90;9.45;;;13.60;99.90;;;;;;7604768;19;20022;-76
2023/05/24 02:48:07;;;;;;;;;;;13.60;99.90;;;;;;7596288;19;20025;-76
2023/05/24 02:50:40;;;;;;;15.55;10.85;;;13.60;99.90;;;;;;7598586;19;19922;-76
2023/05/24 02:53:13;;;;;;;15.90;11.30;;;13.60;99.90;;;;;;7603142;19;20022;-76
2023/05/24 02:55:45;;;;;;;15.30;10.85;;;13.60;99.90;;;;;;7595024;19;20018;-75
2023/05/24 02:58:19;;;;;;;14.80;10.68;;;13.60;99.90;;;;;;7600100;19;20042;-75
2023/05/24 03:00:54;;;;;;;16.42;12.02;;;13.60;99.90;;;;;;7598460;19;20034;-76
2023/05/24 03:03:26;;;;;;;16.23;11.15;;;13.50;99.90;;;;;;7588978;19;20043;-75
2023/05/24 03:05:58;;;;;;;15.45;11.55;;;13.50;99.90;;;;;;7598343;19;20018;-75
2023/05/24 03:08:30;;;;;;;15.73;11.30;;;13.60;99.90;;;;;;7605353;19;20015;-75
2023/05/24 03:11:06;;;;;;;16.30;12.02;;;13.50;99.90;;;;;;7598003;19;20037;-75
2023/05/24 03:13:39;;;;;;;21.02;12.82;;;13.50;99.90;;;;;;7592622;19;21068;-77
2023/05/24 03:16:11;;;;;;;20.75;13.88;;;13.50;99.90;;;;;;7602954;19;20015;-76
2023/05/24 03:18:43;;;;;;;20.20;14.38;;;13.50;99.90;;;;;;7601995;19;20022;-76
2023/05/24 03:21:19;;;;;;;19.58;13.65;;;13.50;99.90;;;;;;7598410;19;20026;-75
2023/05/24 03:23:52;;;;;;;21.30;14.18;;;13.50;99.90;;;;;;7589537;19;20022;-76
2023/05/24 03:26:25;;;;;;;19.00;14.18;;;13.50;99.90;;;;;;7614397;19;20019;-76
2023/05/24 03:28:58;;;;;;;17.88;13.82;;;13.50;99.90;;;;;;7599527;19;20022;-75
2023/05/24 03:31:37;;;;;;;19.80;13.93;;;13.50;99.90;;;;;;7600432;19;20023;-74
2023/05/24 03:34:11;;;;;;;21.15;14.05;;;13.40;99.90;;;;;;7597855;19;20019;-74
2023/05/24 03:36:45;;;;;;;18.52;13.25;;;13.40;99.90;;;;;;7602088;19;20021;-76
2023/05/24 03:39:18;;;;;;;17.42;13.40;;;13.50;99.90;;;;;;7606023;19;20097;-76
2023/05/24 03:41:59;;;;;;;18.50;13.48;;;13.40;99.90;;;;;;7599960;19;20136;-76
2023/05/24 03:44:32;;;;;;;18.30;13.73;;;13.40;99.90;;;;;;7598625;19;20019;-75
2023/05/24 03:47:04;;;;;;;16.20;12.10;;;13.40;99.90;;;;;;7601153;19;20048;-75
2023/05/24 03:49:36;;;;;;;17.83;12.40;;;13.40;99.90;;;;;;7592372;19;20094;-75
2023/05/24 03:52:09;;;;;;;15.52;11.43;;;13.40;99.90;;;;;;7579654;19;20025;-75
2023/05/24 03:54:41;;;;;;;15.63;11.52;;;13.30;99.90;;;;;;7591449;19;20706;-75
2023/05/24 03:57:14;;;;;;;14.15;10.50;;;13.40;99.90;;;;;;7584807;19;20022;-75
2023/05/24 03:59:47;;;;;;;14.32;10.35;;;13.40;99.90;;;;;;7586743;19;20358;-75
2023/05/24 04:02:19;;;;;;;15.27;10.82;;;13.40;99.90;;;;;;7584976;19;20019;-74
2023/05/24 04:04:53;;;;;;;14.73;10.75;;;13.30;99.90;;;;;;7595661;19;20023;-74
2023/05/24 04:07:25;;;;;;;14.88;10.05;;;13.30;99.90;;;;;;7597729;19;20018;-74
2023/05/24 04:09:57;;;;;;;15.25;10.43;;;13.40;99.90;;;;;;7587095;19;20429;-74
2023/05/24 04:12:31;;;;;;;14.65;10.63;;;13.20;99.90;;;;;;7577012;19;20033;-74
2023/05/24 04:15:03;;;;;;;15.90;10.40;;;13.20;99.90;;;;;;7584463;19;20021;-73
2023/05/24 04:17:36;;;;;;;16.03;10.67;;;13.30;99.90;;;;;;7591110;19;20048;-74
2023/05/24 04:20:10;;;;;;;14.13;10.43;;;13.20;99.90;;;;;;7592972;19;20101;-74
2023/05/24 04:22:43;;;;;;;15.25;10.27;;;13.30;99.90;;;;;;7596234;19;20026;-74
2023/05/24 04:25:16;;;;;;;16.00;11.43;;;13.30;99.90;;;;;;7560510;19;20014;-76
2023/05/24 04:27:49;;;;;;;20.55;10.38;;;13.20;99.90;;;;;;7576791;19;20018;-74
2023/05/24 04:30:22;;;;;;;18.77;11.55;;;13.20;99.90;;;;;;7568424;19;21253;-74
2023/05/24 04:32:57;;;;;;;14.00;10.80;;;13.30;99.90;;;;;;7560464;19;20011;-74
2023/05/24 04:35:32;;;;;;;16.90;11.77;;;13.20;99.90;;;;;;7565331;19;20468;-74
2023/05/24 04:38:04;;;;;;;14.25;10.98;;;13.20;99.90;;;;;;7567940;19;20019;-75
2023/05/24 04:40:37;;;;;;;13.85;11.23;;;13.20;99.90;;;;;;7575079;19;20026;-75
2023/05/24 04:43:10;;;;;;;14.93;10.60;;;13.20;99.90;;;;;;7580138;19;20030;-75
2023/05/24 04:45:42;;;;;;;14.57;10.40;;;13.10;99.90;;;;;;7575546;19;20014;-74
2023/05/24 04:48:15;;;;;;;13.55;10.02;;;13.10;99.90;;;;;;7588737;19;20019;-75
2023/05/24 04:50:47;;;;;;;13.50;9.55;;;13.20;99.90;;;;;;7540229;19;20014;-74
2023/05/24 04:53:22;;;;;;;14.25;9.50;;;13.20;99.90;;;;;;7562125;19;20041;-74
2023/05/24 04:55:54;;;;;;;12.70;9.35;;;13.30;99.90;;;;;;7580778;19;20024;-75
2023/05/24 04:58:27;;;;;;;12.63;8.35;;;13.30;99.90;;;;;;7566419;19;20030;-74
2023/05/24 05:01:01;;;;;;;9.77;7.90;;;13.30;99.90;;;;;;7554104;19;20022;-76
2023/05/24 05:03:33;;;;;;;16.75;9.52;;;13.20;99.90;;;;;;7546543;19;20018;-75
2023/05/24 05:06:07;;;;;;;11.80;8.73;;;13.30;99.90;;;;;;7542463;19;20033;-73
2023/05/24 05:08:39;;;;;;;12.93;8.57;;;13.20;99.90;;;;;;7556595;19;20021;-75
2023/05/24 05:11:13;;;;;;;13.18;9.35;;;13.20;99.90;;;;;;7569780;19;22001;-75
2023/05/24 05:13:45;;;;;;;14.50;8.93;;;13.20;99.90;;;;;;7564761;19;20021;-75
2023/05/24 05:16:17;;;;;;;15.25;9.65;;;13.10;99.90;;;;;;7573282;19;21528;-74
2023/05/24 05:18:50;;;;;;;12.88;9.05;;;13.20;99.90;;;;;;7561651;19;20015;-75
2023/05/24 05:21:22;;;;;;;13.77;9.70;;;13.10;99.90;;;;;;7570005;19;20025;-75
2023/05/24 05:23:54;;;;;;;17.20;9.38;;;13.00;99.90;;;;;;7562302;19;20061;-76
2023/05/24 05:26:28;;;;;;;13.70;8.57;;;13.00;99.90;;;;;;7559332;19;20506;-76
2023/05/24 05:29:00;;;;;;;12.95;8.90;;;13.00;99.90;;;;;;7510558;19;20011;-75
2023/05/24 05:31:32;;;;;;;14.95;9.57;;;13.00;99.90;;;;;;7536601;19;20018;-78
2023/05/24 05:34:08;;;;;;;18.83;9.95;;;13.00;99.90;;;;;;7567595;19;20010;-79
2023/05/24 05:36:41;;;;;;;18.27;10.50;;;13.00;99.90;;;;;;7582788;19;20014;-80
2023/05/24 05:39:13;;;;;;;14.43;10.07;;;13.00;99.90;;;;;;7587363;19;20943;-79
2023/05/24 05:41:47;;;;;;;;;;;12.90;99.90;;;;;;7583079;19;20014;-81
2023/05/24 05:44:22;;;;;;;13.35;9.60;;;13.00;99.90;;;;;;7592941;19;19941;-79
2023/05/24 05:46:55;;;;;;;16.00;10.13;;;13.00;99.90;;;;;;7623583;19;20015;-80
2023/05/24 05:49:28;;;;;;;15.00;9.98;;;13.10;99.90;;;;;;7604462;19;20035;-79
2023/05/24 05:52:01;;;;;;;16.63;10.68;;;13.20;99.90;;;;;;7614723;19;20599;-78
2023/05/24 05:54:34;;;;;;;19.35;10.23;;;13.10;99.90;;;;;;7601596;19;20014;-78
2023/05/24 05:57:09;;;;;;;16.23;9.90;;;13.20;99.90;;;;;;7592208;19;20017;-80
2023/05/24 05:59:42;;;;;;;15.10;10.70;;;13.20;99.90;;;;;;7593765;19;20925;-79
2023/05/24 06:02:14;;;;;;;16.40;12.18;;;13.30;99.90;;;;;;7590815;19;20717;-77
2023/05/24 06:04:46;;;;;;;19.40;11.88;;;13.20;99.90;;;;;;7584482;19;20101;-77
2023/05/24 06:07:19;;;;;;;19.40;13.48;;;13.20;99.90;;;;;;7574091;19;20010;-78
2023/05/24 06:09:51;;;;;;;22.83;15.50;;;13.30;99.90;;;;;;7574500;19;20022;-78
2023/05/24 06:12:23;;;;;;;22.90;16.48;;;13.30;99.90;;;;;;7583775;19;20056;-78
2023/05/24 06:14:56;;;;;;;26.38;18.25;;;13.30;99.90;;;;;;7576196;19;20015;-78
2023/05/24 06:17:28;;;;;;;24.15;17.40;;;13.40;99.90;;;;;;7589444;19;20019;-77
2023/05/24 06:20:06;;;;;;;25.20;17.25;;;13.30;99.90;;;;;;7586237;19;20538;-78
2023/05/24 06:22:41;;;;;;;24.75;17.65;;;13.30;99.90;;;;;;7577381;19;20018;-78
2023/05/24 06:25:17;;;;;;;21.15;15.85;;;13.40;99.90;;;;;;7591615;19;20023;-77
2023/05/24 06:27:50;;;;;;;22.63;16.08;;;13.50;99.90;;;;;;7585527;19;20022;-78
2023/05/24 06:30:23;;;;;;;23.55;17.27;;;13.50;99.90;;;;;;7592735;19;20061;-78
2023/05/24 06:32:56;;;;;;;24.15;17.73;;;13.50;99.90;;;;;;7595276;19;20007;-78
2023/05/24 06:35:28;;;;;;;20.83;16.00;;;13.40;99.90;;;;;;7567693;19;20019;-79
2023/05/24 06:38:00;;;;;;;24.40;16.48;;;13.30;99.90;;;;;;7578249;19;20039;-78
2023/05/24 06:40:33;;;;;;;18.02;14.30;;;13.50;99.90;;;;;;7562899;19;20026;-81
2023/05/24 06:43:05;;;;;;;22.53;16.13;;;13.60;99.90;;;;;;7584686;19;20015;-77
2023/05/24 06:45:38;;;;;;;20.23;15.18;;;13.70;99.90;;;;;;7607853;19;21205;-76
2023/05/24 06:48:10;;;;;;;24.27;16.48;;;13.90;99.90;;;;;;7587113;19;20025;-76
2023/05/24 06:50:43;;;;;;;21.70;15.98;;;13.80;99.90;;;;;;7573165;19;20045;-77
2023/05/24 06:53:15;;;;;;;22.55;16.60;;;13.90;99.90;;;;;;7565464;19;20051;-77
2023/05/24 06:55:49;;;;;;;21.42;15.00;;;13.90;99.90;;;;;;7571581;19;20052;-77
2023/05/24 06:58:22;;;;;;;19.80;14.77;;;14.10;99.90;;;;;;7574083;19;20378;-77
2023/05/24 07:00:54;;;;;;;18.70;14.10;;;14.30;99.90;;;;;;7567047;19;20033;-76
2023/05/24 07:03:27;;;;;;;22.50;16.45;;;14.40;99.90;;;;;;7582376;19;20285;-77
2023/05/24 07:06:00;;;;;;;21.13;16.25;;;14.30;99.90;;;;;;7584833;19;20936;-77
2023/05/24 07:08:32;;;;;;;24.25;16.70;;;14.20;99.90;;;;;;7586344;19;20646;-77
2023/05/24 07:11:06;;;;;;;18.02;14.10;;;14.30;99.90;;;;;;7593077;19;20051;-75
2023/05/24 07:13:39;;;;;;;20.15;13.95;;;14.40;99.90;;;;;;7573170;19;20055;-74
2023/05/24 07:16:12;;;;;;;20.73;13.98;;;14.60;99.90;;;;;;7576941;19;21271;-73
2023/05/24 07:18:44;;;;;;;16.92;13.75;;;14.80;99.90;;;;;;7573506;19;20025;-75
2023/05/24 07:21:17;;;;;;;19.08;14.27;;;14.80;99.90;;;;;;7581519;19;20018;-74
2023/05/24 07:23:50;;;;;;;17.60;13.35;;;14.90;99.90;;;;;;7588083;19;20829;-75
2023/05/24 07:26:22;;;;;;;;;;;15.00;99.90;;;;;;7574774;19;20018;-74
2023/05/24 07:28:55;;;;;;;16.33;12.02;;;15.20;99.90;;;;;;7561890;19;20680;-73
2023/05/24 07:31:31;;;;;;;15.60;10.32;;;15.40;99.90;;;;;;7580996;19;20011;-76
2023/05/24 07:34:04;;;;;;;13.93;10.95;;;15.60;99.90;;;;;;7589413;19;20010;-75
2023/05/24 07:36:36;;;;;;;15.57;10.93;;;15.40;99.90;;;;;;7588039;19;20014;-73
2023/05/24 07:39:09;;;;;;;18.65;10.68;;;15.50;99.90;;;;;;7584737;19;20630;-75
2023/05/24 07:41:41;;;;;;;14.75;10.50;;;15.80;99.90;;;;;;7589347;19;20037;-74
2023/05/24 07:44:14;;;;;;;14.93;10.20;;;15.80;99.90;;;;;;7583322;19;20042;-75
2023/05/24 07:46:46;;;;;;;12.50;10.17;;;15.60;99.90;;;;;;7592511;19;20025;-74
2023/05/24 07:49:19;;;;;;;13.40;9.32;;;15.70;99.90;;;;;;7591431;19;20038;-73
2023/05/24 07:51:51;;;;;;;14.63;9.95;;;15.80;99.90;;;;;;7544725;19;20018;-73
2023/05/24 07:54:25;;;;;;;12.93;9.25;;;15.70;99.90;;;;;;7565142;19;20056;-74
2023/05/24 07:56:57;;;;;;;13.95;10.95;;;15.80;99.90;;;;;;7549615;19;20090;-73
2023/05/24 07:59:29;;;;;;;13.63;9.35;;;15.90;99.90;;;;;;7584226;19;20931;-75
2023/05/24 08:02:04;;;;;;;15.70;10.40;;;15.90;99.90;;;;;;7573539;19;20022;-73
2023/05/24 08:04:37;;;;;;;17.45;10.38;;;15.60;99.90;;;;;;7553651;19;20023;-74
2023/05/24 08:07:09;;;;;;;14.52;10.77;;;15.60;99.90;;;;;;7543427;19;20006;-72
2023/05/24 08:09:42;;;;;;;14.13;9.23;;;15.40;99.90;;;;;;7590027;19;20015;-74
2023/05/24 08:12:14;;;;;;;21.15;10.43;;;15.60;99.90;;;;;;7580101;19;20025;-75
2023/05/24 08:14:48;;;;;;;18.20;10.98;;;15.80;99.90;;;;;;7564934;19;20452;-73
2023/05/24 08:17:20;;;;;;;14.10;10.88;;;15.90;99.90;;;;;;7583964;19;20082;-74
2023/05/24 08:19:52;;;;;;;25.98;10.32;;;16.00;99.90;;;;;;7591032;19;20030;-74
2023/05/24 08:22:25;;;;;;;19.87;9.93;;;16.10;99.90;;;;;;7583936;19;20659;-75
2023/05/24 08:24:57;;;;;;;11.75;9.18;;;16.30;99.90;;;;;;7584196;19;20057;-75
2023/05/24 08:27:31;;;;;;;13.70;9.90;;;16.30;99.90;;;;;;7586164;19;20121;-75
2023/05/24 08:30:05;;;;;;;14.10;9.23;;;16.10;99.90;;;;;;7559823;19;20113;-73
2023/05/24 08:32:38;;;;;;;;;;;15.90;99.90;;;;;;7551577;19;20396;-75
2023/05/24 08:35:10;;;;;;;17.08;7.88;;;16.00;99.90;;;;;;7586354;19;19935;-73
2023/05/24 08:37:52;;;;;;;13.90;8.85;;;16.20;99.90;;;;;;7603576;19;20015;-74
2023/05/24 08:40:25;;;;;;;13.33;7.90;;;16.20;99.90;;;;;;7566372;19;20019;-74
2023/05/24 08:43:01;;;;;;;18.25;9.27;;;16.30;99.90;;;;;;7590587;19;20635;-73
2023/05/24 08:45:36;;;;;;;12.85;9.55;;;16.40;99.90;;;;;;7584529;19;20015;-73
2023/05/24 08:48:09;;;;;;;12.20;8.63;;;16.30;99.90;;;;;;7564893;19;20799;-75
2023/05/24 08:50:41;;;;;;;13.65;8.45;;;16.30;99.90;;;;;;7568935;19;20870;-74
2023/05/24 08:53:15;;;;;;;10.55;7.55;;;16.10;99.90;;;;;;7579588;19;20098;-73
2023/05/24 08:55:48;;;;;;;12.38;7.70;;;16.10;99.90;;;;;;7586455;19;20033;-73
2023/05/24 08:58:21;;;;;;;11.40;7.88;;;16.10;99.90;;;;;;7571948;19;20046;-73
2023/05/24 09:00:54;;;;;;;8.85;6.97;;;16.10;99.90;;;;;;7549668;19;20566;-74
2023/05/24 09:03:27;;;;;;;16.33;7.45;;;16.10;99.90;;;;;;7569455;19;21130;-74
2023/05/24 09:06:01;;;;;;;12.13;8.40;;;16.10;99.90;;;;;;7589053;19;20110;-75
2023/05/24 09:08:38;;;;;;;13.52;8.07;;;16.00;99.90;;;;;;7563592;19;20022;-73
2023/05/24 09:11:15;;;;;;;22.42;10.23;;;16.00;99.90;;;;;;7571524;19;20023;-74
2023/05/24 09:13:48;;;;;;;13.50;8.57;;;15.90;99.90;;;;;;7602969;19;20022;-74
2023/05/24 09:16:20;;;;;;;12.90;8.63;;;15.80;99.90;;;;;;7563262;19;20794;-75
2023/05/24 09:18:53;;;;;;;15.93;9.35;;;15.90;99.90;;;;;;7583303;19;20014;-74
2023/05/24 09:21:26;;;;;;;16.85;10.15;;;16.00;99.90;;;;;;7585892;19;20015;-73
2023/05/24 09:23:58;;;;;;;17.77;9.60;;;15.90;99.90;;;;;;7590498;19;20871;-76
2023/05/24 09:26:31;;;;;;;14.40;9.43;;;16.00;99.90;;;;;;7585064;19;20045;-74
2023/05/24 09:29:07;;;;;;;15.70;10.68;;;15.90;99.90;;;;;;7593713;19;20098;-73
2023/05/24 09:31:39;;;;;;;15.43;10.65;;;15.80;99.90;;;;;;7582047;19;20014;-74
2023/05/24 09:34:18;;;;;;;11.98;10.00;;;15.70;99.90;;;;;;7577213;19;20963;-74
2023/05/24 09:36:51;;;;;;;15.30;10.63;;;15.70;99.90;;;;;;7579028;19;20018;-75
2023/05/24 09:39:24;;;;;;;17.65;9.02;;;15.60;99.90;;;;;;7563379;19;20022;-73
2023/05/24 09:41:57;;;;;;;15.43;9.23;;;15.50;99.90;;;;;;7572660;19;20025;-73
2023/05/24 09:44:29;;;;;;;11.82;9.48;;;15.50;99.90;;;;;;7577161;19;20121;-75
2023/05/24 09:47:03;;;;;;;13.88;9.68;;;15.50;99.90;;;;;;7574904;19;20026;-73
2023/05/24 09:49:37;;;;;;;13.20;9.27;;;15.40;99.90;;;;;;7568012;19;20109;-75
2023/05/24 09:52:13;;;;;;;16.47;10.30;;;15.40;99.90;;;;;;7568004;19;20038;-74
2023/05/24 09:54:46;;;;;;;14.75;9.85;;;15.40;99.90;;;;;;7562643;19;20022;-73
2023/05/24 09:57:22;;;;;;;14.55;9.45;;;15.30;99.90;;;;;;7572717;19;20011;-73
2023/05/24 10:00:07;;;;;;;13.82;10.00;;;15.30;99.90;;;;;;7595972;19;20018;-74
2023/05/24 10:02:41;;;;;;;14.82;9.68;;;15.20;99.90;;;;;;7588366;19;20010;-76
2023/05/24 10:05:25;;;;;;;16.85;10.00;;;15.30;99.90;;;;;;7590947;19;20022;-74
2023/05/24 10:07:59;;;;;;;16.27;10.77;;;15.60;99.90;;;;;;7588920;19;20365;-75
2023/05/24 10:10:32;;;;;;;;;;;15.60;99.90;;;;;;7592352;19;20014;-74
2023/05/24 10:13:04;;;;;;;15.35;11.15;;;15.60;99.90;;;;;;7586922;19;19925;-75
2023/05/24 10:15:37;;;;;;;14.15;10.57;;;15.50;99.90;;;;;;7557964;19;20717;-74
2023/05/24 10:18:09;;;;;;;18.05;11.32;;;15.50;99.90;;;;;;7572879;19;20021;-74
2023/05/24 10:20:48;;;;;;;17.67;11.90;;;15.50;99.90;;;;;;7579255;19;20497;-76
2023/05/24 10:23:23;;;;;;;17.98;11.85;;;15.30;99.90;;;;;;7581042;19;20046;-76
2023/05/24 10:26:07;;;;;;;15.25;11.52;;;15.30;99.90;;;;;;7576639;19;20054;-74
2023/05/24 10:28:47;;;;;;;19.23;13.30;;;15.40;99.90;;;;;;7584517;19;20014;-75
2023/05/24 10:31:22;;;;;;;20.13;12.45;;;15.40;99.90;;;;;;7584079;19;20030;-74
2023/05/24 10:33:59;;;;;;;15.35;12.23;;;15.40;99.90;;;;;;7586303;19;20029;-74
2023/05/24 10:36:39;;;;;;;18.40;12.25;;;15.40;99.90;;;;;;7585951;19;20058;-74
2023/05/24 10:39:12;;;;;;;17.23;12.80;;;15.40;99.90;;;;;;7568781;19;20022;-74
2023/05/24 10:41:45;;;;;;;18.20;12.73;;;15.20;99.90;;;;;;7573634;19;20025;-75
2023/05/24 10:44:19;;;;;;;20.83;13.67;;;15.20;99.90;;;;;;7587053;19;20010;-74
2023/05/24 10:47:25;;;;;;;23.70;13.90;;;15.20;99.90;;;;;;7591479;19;20101;-73
2023/05/24 10:49:58;;;;;;;20.20;13.93;;;15.20;99.90;;;;;;7594411;19;20014;-74
2023/05/24 10:52:34;;;;;;;;;;;15.10;99.90;;;;;;7588737;19;20036;-74
2023/05/24 10:55:09;;;;;;;22.20;13.77;;;15.10;99.90;;;;;;7594637;19;20266;-74
2023/05/24 10:57:41;;;;;;;21.42;14.52;;;15.00;99.90;;;;;;7596009;19;20025;-75
2023/05/24 11:00:24;;;;;;;21.63;14.40;;;15.00;99.90;;;;;;7591708;19;20014;-74
2023/05/24 11:03:09;;;;;;;21.13;14.27;;;14.90;99.90;;;;;;7597919;19;20020;-75
2023/05/24 11:05:46;;;;;;;24.77;15.27;;;14.80;99.90;;;;;;7598926;19;21090;-75
2023/05/24 11:08:32;;;;;;;21.20;15.27;;;14.80;99.90;;;;;;7601671;19;20022;-72
2023/05/24 11:11:12;;;;;;;23.77;15.40;;;14.70;99.90;;;;;;7601304;19;20018;-76
2023/05/24 11:13:48;;;;;;;23.08;14.32;;;14.80;99.90;;;;;;7601987;19;20792;-74
2023/05/24 11:16:35;;;;;;;23.10;14.20;;;14.80;99.90;;;;;;7606919;19;20017;-74
2023/05/24 11:19:13;;;;;;;20.60;14.30;;;14.90;99.90;;;;;;7593149;19;20022;-73
2023/05/24 11:21:48;;;;;;;21.33;13.77;;;15.10;99.90;;;;;;7600203;19;20015;-74
2023/05/24 11:24:20;;;;;;;18.02;13.20;;;15.20;99.90;;;;;;7597821;19;20027;-74
2023/05/24 11:26:53;;;;;;;23.70;13.55;;;15.20;99.90;;;;;;7607104;19;20151;-73
2023/05/24 11:29:26;;;;;;;17.90;14.07;;;15.10;99.90;;;;;;7603244;19;20014;-75
2023/05/24 11:32:06;;;;;;;21.87;14.13;;;15.30;99.90;;;;;;7601843;19;20468;-74
2023/05/24 11:34:39;;;;;;;23.02;15.75;;;15.40;99.90;;;;;;7593745;19;20290;-74
2023/05/24 11:37:11;;;;;;;23.52;14.65;;;15.40;99.90;;;;;;7592094;19;20030;-74
2023/05/24 11:39:51;;;;;;;23.48;15.43;;;15.20;99.90;;;;;;7570194;19;20018;-74
2023/05/24 11:42:27;;;;;;;23.42;15.15;;;15.10;99.90;;;;;;7596564;19;20011;-74
2023/05/24 11:44:59;;;;;;;22.05;14.70;;;15.10;99.90;;;;;;7589476;19;20024;-74
2023/05/24 11:47:37;;;;;;;21.98;15.25;;;15.20;99.90;;;;;;7590420;19;20050;-74
2023/05/24 11:50:13;;;;;;;23.42;16.17;;;15.30;99.90;;;;;;7607476;19;20026;-74
2023/05/24 11:52:46;;;;;;;25.17;16.38;;;15.40;99.90;;;;;;7602755;19;20025;-74
2023/05/24 11:55:24;;;;;;;22.42;15.65;;;15.50;99.90;;;;;;7606726;19;20010;-75
2023/05/24 11:57:58;;;;;;;23.75;15.43;;;15.70;99.90;;;;;;7592957;19;20021;-75
2023/05/24 12:00:31;;;;;;;30.45;15.55;;;15.80;99.90;;;;;;7594090;19;20010;-75
2023/05/24 12:03:06;;;;;;;25.33;16.20;;;15.80;99.90;;;;;;7593971;19;21083;-74
2023/05/24 12:05:39;;;;;;;23.73;15.30;;;15.60;99.90;;;;;;7592397;19;20098;-74
2023/05/24 12:08:14;;;;;;;23.83;15.80;;;15.70;99.90;;;;;;7604916;19;20018;-75
2023/05/24 12:10:48;;;;;;;25.33;15.48;;;15.80;99.90;;;;;;7599215;19;20070;-73
2023/05/24 12:13:22;;;;;;;24.80;15.00;;;15.70;99.90;;;;;;7602279;19;20010;-75
2023/05/24 12:15:56;;;;;;;25.77;15.00;;;15.70;99.90;;;;;;7601774;19;20023;-75
2023/05/24 12:18:29;;;;;;;22.92;15.45;;;15.60;99.90;;;;;;7606748;19;20018;-76
2023/05/24 12:21:07;;;;;;;26.45;15.93;;;15.70;99.90;;;;;;7606917;19;20133;-74
2023/05/24 12:23:40;;;;;;;26.70;16.42;;;15.70;99.90;;;;;;7602005;19;20014;-74
2023/05/24 12:26:13;;;;;;;23.05;15.00;;;15.90;99.90;;;;;;7596000;19;20015;-75
2023/05/24 12:28:51;;;;;;;22.38;15.00;;;16.00;99.90;;;;;;7603773;19;20031;-73
2023/05/24 12:31:23;;;;;;;23.73;16.25;;;16.10;99.90;;;;;;7595774;19;20373;-74
2023/05/24 12:33:56;;;;;;;20.67;15.33;;;16.20;99.00;;;;;;7598688;19;20668;-74
2023/05/24 12:36:29;;;;;;;23.67;15.83;;;16.20;99.10;;;;;;7586436;19;20091;-73
2023/05/24 12:39:22;;;;;;;20.10;14.85;;;16.20;98.50;;;;;;7588442;19;20082;-75
2023/05/24 12:41:54;;;;;;;21.33;14.70;;;16.30;98.90;;;;;;7596037;19;20122;-74
2023/05/24 12:44:33;;;;;;;19.70;13.60;;;16.40;98.20;;;;;;7601221;19;20006;-76
2023/05/24 12:47:06;;;;;;;20.02;13.88;;;16.30;97.60;;;;;;7605203;19;20025;-75
2023/05/24 12:49:40;;;;;;;23.33;15.40;;;16.40;98.40;;;;;;7606389;19;21228;-75
2023/05/24 12:52:12;;;;;;;28.38;14.40;;;16.50;97.40;;;;;;7599261;19;20011;-75
2023/05/24 12:54:45;;;;;;;21.98;13.52;;;16.40;97.50;;;;;;7600543;19;20010;-74
2023/05/24 12:57:17;;;;;;;21.07;13.97;;;16.30;97.60;;;;;;7603273;19;20022;-76
2023/05/24 12:59:50;;;;;;;18.38;13.40;;;16.30;96.10;;;;;;7601259;19;20066;-74
2023/05/24 13:02:22;;;;;;;23.58;13.52;;;16.10;95.40;;;;;;7585258;19;20014;-75
2023/05/24 13:04:54;;;;;;;25.77;13.40;;;16.20;95.50;;;;;;7604275;19;20134;-74
2023/05/24 13:07:27;;;;;;;21.73;13.88;;;16.20;97.00;;;;;;7601161;19;21055;-73
2023/05/24 13:09:59;;;;;;;26.55;14.55;;;16.40;96.40;;;;;;7602683;19;20018;-75